createdAt,value
2022-12-04T00:01:28.226Z,100004.56
2022-12-04T00:03:58.106Z,99989.16
2022-12-04T00:06:26.385Z,99990.28
2022-12-04T00:08:59.640Z,99983.09
2022-12-04T00:11:32.709Z,99993.78
2022-12-04T00:14:06.788Z,99996.25
2022-12-04T00:16:35.527Z,99996.63
2022-12-04T00:19:02.819Z,99994.34
2022-12-04T00:21:30.353Z,100000.31
2022-12-04T00:23:57.310Z,99999.28
2022-12-04T00:26:27.042Z,99999.84
2022-12-04T00:28:54.900Z,100006.53
2022-12-04T00:31:25.426Z,100002.31
2022-12-04T00:33:55.333Z,100013.56
2022-12-04T00:36:25.271Z,100008.06
2022-12-04T00:38:52.610Z,100001.34
2022-12-04T00:41:23.470Z,100006.84
2022-12-04T00:43:50.658Z,100005.16
2022-12-04T00:46:18.115Z,100005.16
2022-12-04T00:48:45.774Z,100003.91
2022-12-04T00:51:16.801Z,100008.38
2022-12-04T00:53:44.515Z,99998.13
2022-12-04T00:56:19.747Z,100003.91
2022-12-04T00:58:47.884Z,100000.38
2022-12-04T01:01:18.724Z,100016.84
2022-12-04T01:03:48.897Z,100005.88
2022-12-04T01:06:19.479Z,100010.63
2022-12-04T01:08:46.939Z,100017.16
2022-12-04T01:11:16.441Z,100013.09
2022-12-04T01:13:43.901Z,100010.63
2022-12-04T01:16:23.855Z,100011.66
2022-12-04T01:18:51.833Z,100009.09
2022-12-04T01:21:20.134Z,100012.13
2022-12-04T01:23:49.374Z,100024.63
2022-12-04T01:26:21.475Z,100010.53
2022-12-04T01:28:50.967Z,100015.53
2022-12-04T01:31:20.663Z,100010.53
2022-12-04T01:33:50.946Z,100009.97
2022-12-04T01:36:23.708Z,100000.69
2022-12-04T01:38:50.974Z,99999.56
2022-12-04T01:41:22.244Z,100009.00
2022-12-04T01:44:07.586Z,99997.78
2022-12-04T01:46:35.151Z,99990.75
2022-12-04T01:49:03.827Z,99992.28
2022-12-04T01:51:35.927Z,99987.81
2022-12-04T01:54:07.975Z,99991.13
2022-12-04T01:56:55.298Z,99986.97
2022-12-04T01:59:27.637Z,99985.44
2022-12-04T02:02:07.366Z,99994.44
2022-12-04T02:04:36.452Z,99995.47
2022-12-04T02:07:03.996Z,99988.47
2022-12-04T02:09:32.533Z,99997.75
2022-12-04T02:12:36.574Z,99995.28
2022-12-04T02:15:22.706Z,100010.78
2022-12-04T02:17:49.777Z,99991.56
2022-12-04T02:20:31.701Z,99988.63
2022-12-04T02:23:17.435Z,99984.47
2022-12-04T02:25:48.427Z,99988.44
2022-12-04T02:29:06.802Z,99985.22
2022-12-04T02:32:12.252Z,99997.72
2022-12-04T02:34:48.244Z,99993.75
2022-12-04T02:37:33.129Z,99996.78
2022-12-04T02:40:12.176Z,99987.03
2022-12-04T02:42:47.764Z,99988.63
2022-12-04T02:45:17.827Z,99987.84
2022-12-04T02:47:48.607Z,99986.94
2022-12-04T02:50:19.109Z,99996.66
2022-12-04T02:53:26.717Z,99992.13
2022-12-04T02:56:03.108Z,99987.38
2022-12-04T02:58:35.478Z,99991.66
2022-12-04T03:01:18.165Z,99996.94
2022-12-04T03:03:54.314Z,99988.16
2022-12-04T03:06:24.124Z,99985.00
2022-12-04T03:08:57.331Z,99981.97
2022-12-04T03:11:28.690Z,99980.00
2022-12-04T03:14:04.954Z,99970.25
2022-12-04T03:16:37.608Z,99974.69
2022-12-04T03:19:12.384Z,99976.69
2022-12-04T03:21:48.286Z,99966.84
2022-12-04T03:24:21.645Z,99975.09
2022-12-04T03:27:09.725Z,99983.31
2022-12-04T03:29:58.887Z,99978.78
2022-12-04T03:32:36.251Z,99974.19
2022-12-04T03:35:11.393Z,99978.91
2022-12-04T03:38:03.198Z,99965.19
2022-12-04T03:40:43.821Z,99976.34
2022-12-04T03:43:27.937Z,99971.63
2022-12-04T03:46:17.104Z,99981.06
2022-12-04T03:48:52.691Z,99977.78
2022-12-04T03:51:26.317Z,99976.53
2022-12-04T03:54:05.002Z,99978.53
2022-12-04T03:56:38.709Z,99975.03
2022-12-04T03:59:22.448Z,99967.56
2022-12-04T04:01:52.138Z,99965.38
2022-12-04T04:04:27.385Z,99957.63
2022-12-04T04:07:01.509Z,99959.13
2022-12-04T04:09:35.688Z,99967.84
2022-12-04T04:12:11.934Z,99964.59
2022-12-04T04:15:04.220Z,99964.13
2022-12-04T04:17:56.456Z,99955.16
2022-12-04T04:20:49.152Z,99969.34
2022-12-04T04:23:37.184Z,99954.88
2022-12-04T04:26:07.344Z,99953.16
2022-12-04T04:28:39.940Z,99953.63
2022-12-04T04:31:13.679Z,99965.09
2022-12-04T04:33:52.106Z,99952.41
2022-12-04T04:37:10.370Z,99959.13
2022-12-04T04:40:01.040Z,99950.34
2022-12-04T04:42:31.384Z,99957.91
2022-12-04T04:45:10.860Z,99954.13
2022-12-04T04:47:52.769Z,99959.88
2022-12-04T04:50:20.994Z,99963.09
2022-12-04T04:52:53.426Z,99964.81
2022-12-04T04:55:21.118Z,99966.34
2022-12-04T04:57:48.835Z,99959.59
2022-12-04T05:00:19.631Z,99959.13
2022-12-04T05:02:48.827Z,99957.34
2022-12-04T05:05:16.519Z,99954.31
2022-12-04T05:07:43.855Z,99951.56
2022-12-04T05:10:11.103Z,99951.09
2022-12-04T05:12:38.702Z,99941.63
2022-12-04T05:15:06.212Z,99947.59
2022-12-04T05:17:37.908Z,99937.06
2022-12-04T05:20:06.244Z,99933.78
2022-12-04T05:22:35.311Z,99930.75
2022-12-04T05:25:03.607Z,99934.28
2022-12-04T05:27:33.172Z,99946.66
2022-12-04T05:30:00.298Z,99943.63
2022-12-04T05:32:29.364Z,99948.09
2022-12-04T05:34:57.106Z,99955.84
2022-12-04T05:37:25.064Z,99948.38
2022-12-04T05:39:52.224Z,99952.06
2022-12-04T05:42:19.594Z,99964.56
2022-12-04T05:44:50.893Z,99959.56
2022-12-04T05:47:18.211Z,99957.72
2022-12-04T05:49:47.409Z,99956.22
2022-12-04T05:52:14.917Z,99955.19
2022-12-04T05:54:44.387Z,99947.72
2022-12-04T05:57:11.671Z,99951.97
2022-12-04T05:59:38.854Z,99967.78
2022-12-04T06:02:08.594Z,99955.75
2022-12-04T06:04:37.525Z,99972.97
2022-12-04T06:07:04.882Z,99961.25
2022-12-04T06:09:31.803Z,99966.00
2022-12-04T06:11:59.403Z,99967.97
2022-12-04T06:14:26.630Z,99972.78
2022-12-04T06:16:54.090Z,99975.25
2022-12-04T06:19:22.448Z,99977.13
2022-12-04T06:21:52.632Z,99974.28
2022-12-04T06:24:24.407Z,99980.25
2022-12-04T06:27:27.193Z,99996.22
2022-12-04T06:29:43.686Z,99987.72
2022-12-04T06:32:12.239Z,99984.72
2022-12-04T06:34:44.756Z,99994.25
2022-12-04T06:37:14.212Z,99998.50
2022-12-04T06:39:41.132Z,99998.69
2022-12-04T06:42:10.768Z,99999.44
2022-12-04T06:44:37.726Z,100001.59
2022-12-04T06:47:05.543Z,99999.63
2022-12-04T06:49:36.216Z,99994.13
2022-12-04T06:52:03.779Z,99987.91
2022-12-04T06:54:30.783Z,99986.41
2022-12-04T07:00:28.794Z,99984.59
2022-12-04T07:02:56.226Z,99987.81
2022-12-04T07:05:23.201Z,99996.47
2022-12-04T07:07:53.001Z,99993.00
2022-12-04T07:10:20.081Z,99994.22
2022-12-04T07:12:47.434Z,100003.19
2022-12-04T07:15:14.768Z,99995.75
2022-12-04T07:17:42.226Z,99996.31
2022-12-04T07:20:11.990Z,99989.03
2022-12-04T07:22:39.606Z,99993.00
2022-12-04T07:25:06.762Z,99986.75
2022-12-04T07:27:34.025Z,99998.19
2022-12-04T07:30:00.970Z,100004.44
2022-12-04T07:32:28.259Z,100008.97
2022-12-04T07:34:55.187Z,100001.97
2022-12-04T07:37:22.482Z,100001.97
2022-12-04T07:39:53.116Z,100000.00
2022-12-04T07:42:24.070Z,100013.03
2022-12-04T07:44:51.426Z,100013.22
2022-12-04T07:47:18.703Z,100015.97
2022-12-04T07:49:45.720Z,100012.00
2022-12-04T07:52:13.264Z,100025.72
2022-12-04T07:54:40.310Z,100023.72
2022-12-04T07:57:07.608Z,100016.72
2022-12-04T07:59:34.648Z,100015.03
2022-12-04T08:02:02.048Z,100002.44
2022-12-04T08:04:29.078Z,99996.47
2022-12-04T08:06:56.757Z,100007.75
2022-12-04T08:09:23.761Z,100015.22
2022-12-04T08:11:51.115Z,100017.78
2022-12-04T08:14:18.167Z,100015.31
2022-12-04T08:16:49.736Z,100009.44
2022-12-04T08:19:19.547Z,100010.19
2022-12-04T08:21:46.900Z,100025.13
2022-12-04T08:24:14.726Z,100009.44
2022-12-04T08:26:42.065Z,100011.72
2022-12-04T08:29:11.643Z,100003.31
2022-12-04T08:31:39.092Z,99993.56
2022-12-04T08:34:07.706Z,99991.88
2022-12-04T08:36:35.501Z,99998.84
2022-12-04T08:39:02.877Z,99991.28
2022-12-04T08:41:30.558Z,99992.63
2022-12-04T08:43:59.046Z,99998.13
2022-12-04T08:46:27.934Z,100007.38
2022-12-04T08:48:55.284Z,100009.44
2022-12-04T08:51:25.256Z,99998.31
2022-12-04T08:53:57.665Z,100010.78
2022-12-04T08:56:29.906Z,100012.00
2022-12-04T08:59:00.330Z,100009.94
2022-12-04T09:01:29.387Z,100017.38
2022-12-04T09:03:57.863Z,100018.34
2022-12-04T09:06:26.201Z,100014.53
2022-12-04T09:08:58.230Z,100013.88
2022-12-04T09:11:32.078Z,100017.22
2022-12-04T09:14:02.273Z,100012.31
2022-12-04T09:16:33.577Z,100016.44
2022-12-04T09:19:02.245Z,100019.19
2022-12-04T09:21:30.737Z,100009.81
2022-12-04T09:24:02.741Z,100008.56
2022-12-04T09:26:33.335Z,100009.63
2022-12-04T09:29:04.987Z,100017.56
2022-12-04T09:31:38.402Z,100012.44
2022-12-04T09:34:06.574Z,100006.78
2022-12-04T09:36:34.795Z,100006.78
2022-12-04T09:39:03.396Z,100011.97
2022-12-04T09:41:48.597Z,100013.66
2022-12-04T09:44:31.029Z,99999.28
2022-12-04T09:47:28.423Z,100008.56
2022-12-04T09:50:01.885Z,100018.75
2022-12-04T09:52:51.434Z,100017.81
2022-12-04T09:55:33.999Z,100011.97
2022-12-04T09:58:06.206Z,100012.75
2022-12-04T10:00:39.397Z,100016.22
2022-12-04T10:03:19.138Z,100010.09
2022-12-04T10:06:05.956Z,100014.72
2022-12-04T10:08:40.883Z,100011.97
2022-12-04T10:11:17.670Z,100008.09
2022-12-04T10:13:54.371Z,100010.38
2022-12-04T10:16:52.786Z,99989.75
2022-12-04T10:19:28.783Z,100000.72
2022-12-04T10:22:08.516Z,99990.88
2022-12-04T10:24:46.793Z,100000.03
2022-12-04T10:27:32.700Z,99987.56
2022-12-04T10:30:27.730Z,99987.00
2022-12-04T10:33:16.827Z,99986.34
2022-12-04T10:35:47.727Z,99983.25
2022-12-04T10:38:46.171Z,99980.69
2022-12-04T10:41:28.368Z,99982.28
2022-12-04T10:43:56.051Z,99975.38
2022-12-04T10:46:32.982Z,99981.59
2022-12-04T10:49:09.632Z,99972.00
2022-12-04T10:51:42.060Z,99978.69
2022-12-04T10:54:32.763Z,99985.03
2022-12-04T10:57:03.578Z,99982.59
2022-12-04T10:59:42.078Z,99969.34
2022-12-04T11:02:12.438Z,99963.41
2022-12-04T11:04:40.489Z,99973.13
2022-12-04T11:07:34.856Z,99967.72
2022-12-04T11:10:06.721Z,99960.56
2022-12-04T11:12:36.387Z,99970.56
2022-12-04T11:15:06.396Z,99961.03
2022-12-04T11:17:34.230Z,99961.50
2022-12-04T11:20:24.311Z,99946.09
2022-12-04T11:22:59.820Z,99947.88
2022-12-04T11:25:34.131Z,99952.91
2022-12-04T11:28:04.998Z,99943.16
2022-12-04T11:30:37.478Z,99945.72
2022-12-04T11:33:17.135Z,99930.16
2022-12-04T11:35:54.230Z,99933.34
2022-12-04T11:38:28.411Z,99929.28
2022-12-04T11:41:01.110Z,99930.16
2022-12-04T11:43:30.652Z,99925.31
2022-12-04T11:46:03.926Z,99929.09
2022-12-04T11:48:40.939Z,99917.66
2022-12-04T11:51:14.468Z,99913.88
2022-12-04T11:53:56.296Z,99905.94
2022-12-04T11:56:43.661Z,99898.28
2022-12-04T11:59:31.431Z,99897.78
2022-12-04T12:02:20.574Z,99897.97
2022-12-04T12:04:51.093Z,99894.22
2022-12-04T12:07:30.764Z,99893.06
2022-12-04T12:10:38.872Z,99894.78
2022-12-04T12:13:25.865Z,99894.69
2022-12-04T12:16:17.091Z,99888.81
2022-12-04T12:19:11.381Z,99884.59
2022-12-04T12:22:05.235Z,99897.16
2022-12-04T12:24:51.286Z,99910.75
2022-12-04T12:27:29.849Z,99897.13
2022-12-04T12:30:09.714Z,99897.22
2022-12-04T12:33:08.606Z,99895.81
2022-12-04T12:35:46.231Z,99895.44
2022-12-04T12:38:44.163Z,99889.88
2022-12-04T12:41:17.113Z,99890.81
2022-12-04T12:44:06.696Z,99881.84
2022-12-04T12:46:59.084Z,99880.69
2022-12-04T12:49:55.719Z,99879.56
2022-12-04T12:52:35.942Z,99876.91
2022-12-04T12:55:29.212Z,99878.44
2022-12-04T12:58:12.430Z,99872.47
2022-12-04T13:00:49.096Z,99879.38
2022-12-04T13:03:31.941Z,99874.94
2022-12-04T13:06:06.205Z,99873.88
2022-12-04T13:08:59.724Z,99875.97
2022-12-04T13:11:32.597Z,99881.91
2022-12-04T13:14:03.824Z,99880.81
2022-12-04T13:16:39.247Z,99884.09
2022-12-04T13:19:24.831Z,99878.06
2022-12-04T13:21:58.064Z,99885.81
2022-12-04T13:24:35.168Z,99878.53
2022-12-04T13:27:08.438Z,99878.25
2022-12-04T13:29:52.733Z,99882.00
2022-12-04T13:32:58.319Z,99887.50
2022-12-04T13:35:39.512Z,99882.59
2022-12-04T13:38:58.643Z,99883.34
2022-12-04T13:41:30.068Z,99875.97
2022-12-04T13:44:04.129Z,99867.19
2022-12-04T13:46:54.332Z,99895.81
2022-12-04T13:49:27.031Z,99889.75
2022-12-04T13:51:56.579Z,99895.25
2022-12-04T13:54:32.149Z,99892.06
2022-12-04T13:57:17.478Z,99886.84
2022-12-04T13:59:45.250Z,99896.88
2022-12-04T14:02:28.160Z,99895.34
2022-12-04T14:05:04.172Z,99889.38
2022-12-04T14:07:39.969Z,99899.91
2022-12-04T14:10:27.198Z,99905.38
2022-12-04T14:12:59.400Z,99898.00
2022-12-04T14:15:39.889Z,99903.97
2022-12-04T14:18:28.908Z,99903.47
2022-12-04T14:21:05.551Z,99904.72
2022-12-04T14:23:41.540Z,99915.50
2022-12-04T14:27:10.239Z,99913.69
2022-12-04T14:29:52.763Z,99924.09
2022-12-04T14:32:27.990Z,99923.63
2022-12-04T14:34:57.052Z,99915.59
2022-12-04T14:37:34.110Z,99914.34
2022-12-04T14:40:04.325Z,99917.75
2022-12-04T14:42:39.900Z,99916.25
2022-12-04T14:45:47.130Z,99915.78
2022-12-04T14:48:58.432Z,99905.09
2022-12-04T14:51:34.768Z,99899.81
2022-12-04T14:54:34.256Z,99917.56
2022-12-04T14:57:21.410Z,99913.50
2022-12-04T14:59:50.856Z,99896.09
2022-12-04T15:02:41.804Z,99897.59
2022-12-04T15:05:30.599Z,99890.91
2022-12-04T15:08:06.194Z,99899.44
2022-12-04T15:10:54.718Z,99884.66
2022-12-04T15:13:35.599Z,99890.25
2022-12-04T15:16:22.971Z,99881.91
2022-12-04T15:19:03.828Z,99878.81
2022-12-04T15:21:42.216Z,99882.50
2022-12-04T15:24:13.902Z,99874.47
2022-12-04T15:26:42.593Z,99875.69
2022-12-04T15:29:17.159Z,99868.69
2022-12-04T15:31:54.012Z,99860.19
2022-12-04T15:34:44.406Z,99875.56
2022-12-04T15:37:21.760Z,99875.03
2022-12-04T15:39:53.312Z,99869.72
2022-12-04T15:42:25.006Z,99864.25
2022-12-04T15:45:04.175Z,99879.91
2022-12-04T15:47:50.113Z,99867.63
2022-12-04T15:50:23.001Z,99869.91
2022-12-04T15:53:27.821Z,99872.38
2022-12-04T15:56:07.789Z,99874.34
2022-12-04T15:58:40.912Z,99872.38
2022-12-04T16:01:16.212Z,99879.34
2022-12-04T16:03:44.267Z,99884.53
2022-12-04T16:06:23.434Z,99884.25
2022-12-04T16:09:01.246Z,99893.97
2022-12-04T16:11:39.023Z,99899.16
2022-12-04T16:14:10.355Z,99893.69
2022-12-04T16:16:44.243Z,99894.16
2022-12-04T16:19:34.378Z,99893.41
2022-12-04T16:22:04.484Z,99895.41
2022-12-04T16:24:32.403Z,99895.41
2022-12-04T16:27:01.660Z,99893.69
2022-12-04T16:29:31.105Z,99892.94
2022-12-04T16:32:03.013Z,99890.66
2022-12-04T16:34:35.396Z,99896.91
2022-12-04T16:37:12.402Z,99901.63
2022-12-04T16:39:41.590Z,99900.41
2022-12-04T16:42:27.918Z,99902.38
2022-12-04T16:44:57.179Z,99921.84
2022-12-04T16:47:25.474Z,99914.84
2022-12-04T16:49:56.409Z,99916.84
2022-12-04T16:52:24.318Z,99908.88
2022-12-04T16:54:52.343Z,99906.16
2022-12-04T16:57:20.623Z,99913.94
2022-12-04T16:59:52.119Z,99911.91
2022-12-04T17:02:29.088Z,99912.41
2022-12-04T17:04:58.309Z,99912.69
2022-12-04T17:07:26.546Z,99922.59
2022-12-04T17:09:55.000Z,99911.91
2022-12-04T17:12:22.936Z,99921.97
2022-12-04T17:14:51.085Z,99916.94
2022-12-04T17:17:18.825Z,99904.28
2022-12-04T17:19:49.130Z,99898.34
2022-12-04T17:22:22.126Z,99896.94
2022-12-04T17:24:56.471Z,99896.66
2022-12-04T17:27:26.974Z,99905.91
2022-12-04T17:29:56.852Z,99910.63
2022-12-04T17:32:24.458Z,99919.88
2022-12-04T17:34:54.785Z,99914.41
2022-12-04T17:37:23.318Z,99905.72
2022-12-04T17:39:52.145Z,99914.50
2022-12-04T17:42:20.300Z,99918.19
2022-12-04T17:44:48.595Z,99918.94
2022-12-04T17:47:19.170Z,99930.19
2022-12-04T17:49:47.791Z,99932.19
2022-12-04T17:52:23.107Z,99923.78
2022-12-04T17:54:51.362Z,99916.50
2022-12-04T17:57:19.769Z,99919.72
2022-12-04T17:59:52.954Z,99919.81
2022-12-04T18:02:23.561Z,99923.78
2022-12-04T18:04:55.397Z,99931.25
2022-12-04T18:07:24.770Z,99928.03
2022-12-04T18:09:53.048Z,99922.84
2022-12-04T18:12:20.780Z,99926.06
2022-12-04T18:14:49.440Z,99919.63
2022-12-04T18:17:20.558Z,99919.16
2022-12-04T18:19:49.812Z,99913.97
2022-12-04T18:22:17.254Z,99913.19
2022-12-04T18:24:45.794Z,99917.00
2022-12-04T18:27:13.943Z,99905.56
2022-12-04T18:29:42.833Z,99902.06
2022-12-04T18:32:10.690Z,99913.00
2022-12-04T18:34:39.272Z,99918.50
2022-12-04T18:37:07.461Z,99920.28
2022-12-04T18:39:37.024Z,99916.53
2022-12-04T18:42:05.272Z,99918.78
2022-12-04T18:44:33.673Z,99919.84
2022-12-04T18:47:06.514Z,99903.59
2022-12-04T18:49:47.513Z,99911.31
2022-12-04T18:52:19.907Z,99907.34
2022-12-04T18:54:54.157Z,99903.41
2022-12-04T18:57:47.699Z,99893.81
2022-12-04T19:00:37.024Z,99900.91
2022-12-04T19:03:33.158Z,99891.47
2022-12-04T19:06:13.211Z,99887.97
2022-12-04T19:09:04.275Z,99901.88
2022-12-04T19:11:46.443Z,99885.41
2022-12-04T19:14:26.940Z,99892.16
2022-12-04T19:16:57.779Z,99891.19
2022-12-04T19:19:45.244Z,99896.66
2022-12-04T19:22:45.438Z,99892.97
2022-12-04T19:25:41.450Z,99888.56
2022-12-04T19:28:32.961Z,99884.47
2022-12-04T19:34:22.054Z,99878.97
2022-12-04T19:36:55.610Z,99882.78
2022-12-04T19:39:27.162Z,99877.09
2022-12-04T19:42:28.608Z,99880.03
2022-12-04T19:45:19.208Z,99876.53
2022-12-04T19:48:09.985Z,99884.28
2022-12-04T19:50:40.429Z,99883.53
2022-12-04T19:53:19.241Z,99883.25
2022-12-04T19:55:58.698Z,99877.59
2022-12-04T19:59:00.348Z,99889.56
2022-12-04T20:01:37.154Z,99892.06
2022-12-04T20:04:08.516Z,99878.59
2022-12-04T20:06:46.668Z,99877.69
2022-12-04T20:09:20.441Z,99865.94
2022-12-04T20:11:52.525Z,99860.94
2022-12-04T20:14:21.554Z,99848.00
2022-12-04T20:16:49.535Z,99850.28
2022-12-04T20:19:25.083Z,99854.22
2022-12-04T20:22:03.238Z,99855.75
2022-12-04T20:24:39.926Z,99848.94
2022-12-04T20:27:10.673Z,99837.03
2022-12-04T20:30:04.559Z,99835.50
2022-12-04T20:32:45.194Z,99851.47
2022-12-04T20:35:17.652Z,99828.06
2022-12-04T20:37:45.780Z,99818.31
2022-12-04T20:40:14.539Z,99828.81
2022-12-04T20:42:43.311Z,99825.50
2022-12-04T20:45:15.042Z,99827.19
2022-12-04T20:47:45.771Z,99826.91
2022-12-04T20:50:16.317Z,99828.72
2022-12-04T20:52:46.882Z,99825.22
2022-12-04T20:55:15.991Z,99821.22
2022-12-04T20:57:47.304Z,99811.50
2022-12-04T21:00:16.180Z,99800.56
2022-12-04T21:02:44.256Z,99805.94
2022-12-04T21:05:12.496Z,99800.47
2022-12-04T21:07:40.387Z,99792.72
2022-12-04T21:10:09.102Z,99797.72
2022-12-04T21:12:55.259Z,99800.47
2022-12-04T21:15:41.817Z,99794.97
2022-12-04T21:18:12.468Z,99787.03
2022-12-04T21:20:40.333Z,99781.84
2022-12-04T21:23:08.673Z,99789.59
2022-12-04T21:25:37.638Z,99793.38
2022-12-04T21:28:04.868Z,99787.41
2022-12-04T21:30:35.163Z,99790.97
2022-12-04T21:33:02.202Z,99782.56
2022-12-04T21:35:31.760Z,99782.03
2022-12-04T21:37:58.925Z,99785.97
2022-12-04T21:40:28.471Z,99781.81
2022-12-04T21:42:55.506Z,99788.31
2022-12-04T21:45:22.798Z,99775.19
2022-12-04T21:47:52.606Z,99778.22
2022-12-04T21:50:19.915Z,99785.19
2022-12-04T21:52:47.382Z,99764.31
2022-12-04T21:55:14.771Z,99758.53
2022-12-04T21:57:41.801Z,99750.09
2022-12-04T22:00:09.898Z,99745.16
2022-12-04T22:02:40.071Z,99749.44
2022-12-04T22:05:07.976Z,99747.50
2022-12-04T22:07:34.975Z,99733.78
2022-12-04T22:10:08.695Z,99738.06
2022-12-04T22:12:52.874Z,99732.38
2022-12-04T22:15:20.170Z,99726.41
2022-12-04T22:17:47.188Z,99708.69
2022-12-04T22:20:14.544Z,99705.50
2022-12-04T22:22:41.830Z,99707.81
2022-12-04T22:25:09.495Z,99714.06
2022-12-04T22:27:36.446Z,99718.31
2022-12-04T22:30:07.171Z,99719.81
2022-12-04T22:32:34.352Z,99692.88
2022-12-04T22:35:01.600Z,99698.16
2022-12-04T22:37:28.549Z,99698.91
2022-12-04T22:39:58.445Z,99696.16
2022-12-04T22:42:25.696Z,99700.13
2022-12-04T22:44:53.156Z,99681.97
2022-12-04T22:47:20.152Z,99663.03
2022-12-04T22:49:47.432Z,99686.19
2022-12-04T22:52:17.016Z,99692.44
2022-12-04T22:54:46.737Z,99691.97
2022-12-04T22:57:13.716Z,99694.44
2022-12-04T22:59:41.218Z,99682.47
2022-12-04T23:02:08.267Z,99686.47
2022-12-04T23:04:40.512Z,99682.25
2022-12-04T23:07:07.488Z,99667.97
2022-12-04T23:09:35.441Z,99692.38
2022-12-04T23:12:04.903Z,99684.16
2022-12-04T23:14:33.754Z,99668.94
2022-12-04T23:17:00.758Z,99670.16
2022-12-04T23:19:28.175Z,99663.91
2022-12-04T23:21:57.287Z,99660.91
2022-12-04T23:24:25.846Z,99653.16
2022-12-04T23:26:55.496Z,99644.91
2022-12-04T23:29:51.415Z,99653.91
2022-12-04T23:32:12.260Z,99659.66
2022-12-04T23:34:42.120Z,99656.66
2022-12-04T23:37:09.375Z,99665.63
2022-12-04T23:39:36.839Z,99668.38
2022-12-04T23:42:06.201Z,99669.59
2022-12-04T23:44:33.455Z,99671.41
2022-12-04T23:47:00.504Z,99668.38
2022-12-04T23:49:30.218Z,99668.94
2022-12-04T23:51:57.191Z,99671.13
2022-12-04T23:54:27.381Z,99672.63
2022-12-04T23:56:56.686Z,99679.34
2022-12-04T23:59:23.944Z,99674.63
